Terminal Aerodrome Forecast
Issued by NWS

Home | Current Version | Previous Version | Text Only | Print | Product List | Glossary On
Versions: 1 2 3 4 5 6 7 8 9 10 11 12 13 14 15 16 17 18 19 20 21 22 23 24 25 26 27 28 29
000
FTUS45 KRIW 270500
TAFPNA
TAF
KPNA 270523Z 2706/2806 13005KT 3SM -SN SCT012 OVC022
      TEMPO 2706/2710 1 1/2SM -SN BKN010
     FM271100 VRB04KT P6SM VCSH BKN030
     FM271600 VRB04KT P6SM SCT040 SCT080
     FM272100 VRB04KT P6SM SCT040 BKN080
     FM280000 VRB04KT P6SM VCSH SCT026 BKN040
      AMD LTD TO CLD VIS AND WIND=

USA.gov is the U.S. government's official web portal to all federal, state and local government web resources and services.